Butterfly — C6UP2 — position and weather

sailwx.info

Track history (hours):
 
Tides and Currents Weather Stations Pressure Air Temp Water Temp Dewpoint Dewpoint Depression Visibility Wind Speed Wind Dir Waves Ship Positions

Butterfly

Last reported at 2014-Oct-30 10:24 UTC. Time now 2014-Oct-31 17:57 UTC.
Position N 40°26' W 069°37'.

Length 182 m; draft 6.8 m.

Type: Tanker. MMSI: 311985000.

Date/timePositionNaut miles runAvg speedWind from/ knotsBaromVisibWave heightAir tempDewpointWater temp
2014-Oct-30 10:24N 40°26' W 069°37'1112.7
2014-Oct-30 09:32N 40°25' W 069°52'1212.4
2014-Oct-30 08:33N 40°25' W 070°08'1312.7
2014-Oct-30 07:33N 40°25' W 070°24'1312.8
2014-Oct-30 06:32N 40°24' W 070°41'1312.8
2014-Oct-30 05:33N 40°24' W 070°58'1312.7
2014-Oct-30 04:33N 40°24' W 071°15'1312.8
2014-Oct-30 03:33N 40°24' W 071°31'1312.9
2014-Oct-30 02:33N 40°23' W 071°48'1312.7
2014-Oct-30 01:33N 40°23' W 072°05'1312.7
2014-Oct-30 00:33N 40°23' W 072°22'1312.7
2014-Oct-29 23:33N 40°23' W 072°38'1312.8
2014-Oct-29 22:34N 40°22' W 072°55'1413.0
2014-Oct-29 21:29N 40°22' W 073°13'1513.5
2014-Oct-29 20:21N 40°25' W 073°33'1113.5
2014-Oct-29 19:33N 40°27' W 073°47'1313.5
2014-Oct-29 18:33N 40°34' W 074°02'4 4.0
2014-Oct-29 17:31N 40°38' W 074°04'0 0.0
2014-Oct-29 16:28N 40°38' W 074°04'0 0.1
2014-Oct-29 15:31N 40°38' W 074°04'0 0.1
2014-Oct-29 14:31N 40°38' W 074°04'1 0.6
2014-Oct-29 13:33N 40°39' W 074°04'2 2.2
2014-Oct-29 12:33N 40°39' W 074°07'0 0.0
2014-Oct-29 11:33N 40°39' W 074°07'0 0.0
2014-Oct-29 10:33N 40°39' W 074°07'0 0.0
2014-Oct-29 09:33N 40°39' W 074°07'0 0.0
2014-Oct-29 08:33N 40°39' W 074°07'0 0.0
2014-Oct-29 07:33N 40°39' W 074°07'0 0.0
2014-Oct-29 06:33N 40°39' W 074°07'0 0.0
2014-Oct-29 05:33N 40°39' W 074°07'0 0.0
2014-Oct-29 04:33N 40°39' W 074°07'0 0.0
2014-Oct-29 03:33N 40°39' W 074°07'0 0.0
2014-Oct-29 02:33N 40°39' W 074°07'0 0.0
2014-Oct-29 01:33N 40°39' W 074°07'0 0.0
2014-Oct-29 00:33N 40°39' W 074°07'0 0.0
2014-Oct-28 23:33N 40°39' W 074°07'0 0.0
2014-Oct-28 22:33N 40°39' W 074°07'0 0.0
2014-Oct-28 21:33N 40°39' W 074°07'0 0.0
2014-Oct-28 20:33N 40°39' W 074°07'0 0.0
2014-Oct-28 19:33N 40°39' W 074°07'0 0.0
2014-Oct-28 18:33N 40°39' W 074°07'0 0.0
2014-Oct-28 17:33N 40°39' W 074°07'0 0.0
2014-Oct-28 16:33N 40°39' W 074°07'0 0.0
2014-Oct-28 15:33N 40°39' W 074°07'0 0.0
2014-Oct-28 14:33N 40°39' W 074°07'0 0.0
2014-Oct-28 13:33N 40°39' W 074°07'0 0.0
2014-Oct-28 12:33N 40°39' W 074°07'0 0.0
2014-Oct-28 11:33N 40°39' W 074°07'0 0.0
2014-Oct-28 10:33N 40°39' W 074°07'0 0.0
2014-Oct-28 09:33N 40°39' W 074°07'0 0.0
2014-Oct-28 08:33N 40°39' W 074°07'0 0.0
2014-Oct-28 07:33N 40°39' W 074°07'0 0.0
2014-Oct-28 06:33N 40°39' W 074°07'0 0.0
2014-Oct-28 05:33N 40°39' W 074°07'0 0.0
2014-Oct-28 04:33N 40°39' W 074°07'0 0.0
2014-Oct-28 03:33N 40°39' W 074°07'0 0.0
2014-Oct-28 02:33N 40°39' W 074°07'0 0.0
2014-Oct-28 01:33N 40°39' W 074°07'0 0.0
2014-Oct-28 00:33N 40°39' W 074°07'0 0.0
2014-Oct-27 23:33N 40°39' W 074°07'0 0.0
2014-Oct-27 22:33N 40°39' W 074°07'0 0.0
2014-Oct-27 21:33N 40°39' W 074°07'0 0.0
2014-Oct-27 20:33N 40°39' W 074°07'0 0.0
2014-Oct-27 19:33N 40°39' W 074°07'0 0.0
2014-Oct-27 18:33N 40°39' W 074°07'0 0.0
2014-Oct-27 17:33N 40°39' W 074°07'0 0.0
2014-Oct-27 16:33N 40°39' W 074°07'0 0.0
2014-Oct-27 15:33N 40°39' W 074°07'0 0.0
2014-Oct-27 14:34N 40°39' W 074°07'3 3.5
2014-Oct-27 13:34N 40°37' W 074°03'8 7.8
2014-Oct-27 12:34N 40°30' W 073°58'11 9.1
2014-Oct-27 11:21N 40°28' W 073°43'43 8.9
2014-Oct-27 06:32N 40°30' W 072°47'9 9.2
2014-Oct-27 05:34N 40°31' W 072°35'1211.7
2014-Oct-27 04:33N 40°31' W 072°20'1313.0
2014-Oct-27 03:34N 40°31' W 072°03'1312.8
2014-Oct-27 02:34N 40°32' W 071°46'1312.7
2014-Oct-27 01:33N 40°32' W 071°29'1412.8
2014-Oct-27 00:26N 40°32' W 071°10'  
2014-Oct-22 13:30N 46°37' W 071°59'1111.7
2014-Oct-22 12:33N 46°31' W 072°13'10 9.9
2014-Oct-22 11:33N 46°25' W 072°23'1010.1
2014-Oct-22 10:33N 46°18' W 072°34'10 9.5
2014-Oct-22 09:33N 46°14' W 072°47'2211.2
2014-Oct-22 07:33N 45°59' W 073°11'1212.1
2014-Oct-22 06:33N 45°48' W 073°19'1212.1
2014-Oct-22 05:33N 45°38' W 073°29'2 1.8
2014-Oct-22 04:31N 45°37' W 073°30'0 0.0
2014-Oct-22 03:31N 45°37' W 073°30'0 0.0
2014-Oct-22 02:28N 45°37' W 073°30'0 0.0
2014-Oct-22 01:31N 45°37' W 073°30'0 0.0
2014-Oct-22 00:31N 45°37' W 073°30'0 0.0
2014-Oct-21 23:25N 45°37' W 073°30'0 0.0
2014-Oct-21 22:31N 45°37' W 073°30'0 0.0
2014-Oct-21 21:31N 45°37' W 073°30'0 0.0
2014-Oct-21 20:28N 45°37' W 073°30'0 0.0
2014-Oct-21 19:28N 45°37' W 073°30'0 0.0
2014-Oct-21 18:31N 45°37' W 073°30'0 0.0
2014-Oct-21 17:28N 45°37' W 073°30'0 0.0
2014-Oct-21 16:31N 45°37' W 073°30'0 0.0
2014-Oct-21 15:31N 45°37' W 073°30'0 0.0
2014-Oct-21 14:31N 45°37' W 073°30'0 0.0
2014-Oct-21 13:28N 45°37' W 073°30'0 0.0
2014-Oct-21 12:31N 45°37' W 073°30'0 0.0
2014-Oct-21 11:31N 45°37' W 073°30'0 0.0
2014-Oct-21 10:31N 45°37' W 073°30'0 0.0
2014-Oct-21 09:31N 45°37' W 073°30'0 0.0
2014-Oct-21 08:31N 45°37' W 073°30'0 0.0
2014-Oct-21 07:31N 45°37' W 073°30'0 0.0
2014-Oct-21 06:28N 45°37' W 073°30'0 0.0
2014-Oct-21 05:31N 45°37' W 073°30'0 0.0
2014-Oct-21 04:28N 45°37' W 073°30'0 0.0
2014-Oct-21 03:28N 45°37' W 073°30'0 0.0
2014-Oct-21 02:31N 45°37' W 073°30'0 0.0
2014-Oct-21 01:28N 45°37' W 073°30'0 0.0
2014-Oct-21 00:31N 45°37' W 073°30'0 0.0
2014-Oct-20 16:28N 45°37' W 073°30'0 0.0
2014-Oct-20 15:31N 45°37' W 073°30'0 0.0
2014-Oct-20 14:31N 45°37' W 073°30'0 0.1
2014-Oct-20 13:33N 45°37' W 073°30'2 1.7
2014-Oct-20 12:33N 45°38' W 073°29'0 0.0
2014-Oct-20 11:33N 45°38' W 073°29'0 0.0
2014-Oct-20 10:30N 45°38' W 073°29'  
Track history (hours):
 
Tides and Currents Weather Stations Pressure Air Temp Water Temp Dewpoint Dewpoint Depression Visibility Wind Speed Wind Dir Waves Ship Positions

Butterfly

Last reported at 2014-Oct-30 10:24 UTC. Time now 2014-Oct-31 17:57 UTC.
Position N 40°26' W 069°37'.

Length 182 m; draft 6.8 m.

Type: Tanker. MMSI: 311985000.

Date/timePositionNaut miles runAvg speedWind from/ knotsBaromVisibWave heightAir tempDewpointWater temp
2014-Oct-30 10:24N 40°26' W 069°37'1112.7
2014-Oct-30 09:32N 40°25' W 069°52'1212.4
2014-Oct-30 08:33N 40°25' W 070°08'1312.7
2014-Oct-30 07:33N 40°25' W 070°24'1312.8
2014-Oct-30 06:32N 40°24' W 070°41'1312.8
2014-Oct-30 05:33N 40°24' W 070°58'1312.7
2014-Oct-30 04:33N 40°24' W 071°15'1312.8
2014-Oct-30 03:33N 40°24' W 071°31'1312.9
2014-Oct-30 02:33N 40°23' W 071°48'1312.7
2014-Oct-30 01:33N 40°23' W 072°05'1312.7
2014-Oct-30 00:33N 40°23' W 072°22'1312.7
2014-Oct-29 23:33N 40°23' W 072°38'1312.8
2014-Oct-29 22:34N 40°22' W 072°55'1413.0
2014-Oct-29 21:29N 40°22' W 073°13'1513.5
2014-Oct-29 20:21N 40°25' W 073°33'1113.5
2014-Oct-29 19:33N 40°27' W 073°47'1313.5
2014-Oct-29 18:33N 40°34' W 074°02'4 4.0
2014-Oct-29 17:31N 40°38' W 074°04'0 0.0
2014-Oct-29 16:28N 40°38' W 074°04'0 0.1
2014-Oct-29 15:31N 40°38' W 074°04'0 0.1
2014-Oct-29 14:31N 40°38' W 074°04'1 0.6
2014-Oct-29 13:33N 40°39' W 074°04'2 2.2
2014-Oct-29 12:33N 40°39' W 074°07'0 0.0
2014-Oct-29 11:33N 40°39' W 074°07'0 0.0
2014-Oct-29 10:33N 40°39' W 074°07'0 0.0
2014-Oct-29 09:33N 40°39' W 074°07'0 0.0
2014-Oct-29 08:33N 40°39' W 074°07'0 0.0
2014-Oct-29 07:33N 40°39' W 074°07'0 0.0
2014-Oct-29 06:33N 40°39' W 074°07'0 0.0
2014-Oct-29 05:33N 40°39' W 074°07'0 0.0
2014-Oct-29 04:33N 40°39' W 074°07'0 0.0
2014-Oct-29 03:33N 40°39' W 074°07'0 0.0
2014-Oct-29 02:33N 40°39' W 074°07'0 0.0
2014-Oct-29 01:33N 40°39' W 074°07'0 0.0
2014-Oct-29 00:33N 40°39' W 074°07'0 0.0
2014-Oct-28 23:33N 40°39' W 074°07'0 0.0
2014-Oct-28 22:33N 40°39' W 074°07'0 0.0
2014-Oct-28 21:33N 40°39' W 074°07'0 0.0
2014-Oct-28 20:33N 40°39' W 074°07'0 0.0
2014-Oct-28 19:33N 40°39' W 074°07'0 0.0
2014-Oct-28 18:33N 40°39' W 074°07'0 0.0
2014-Oct-28 17:33N 40°39' W 074°07'0 0.0
2014-Oct-28 16:33N 40°39' W 074°07'0 0.0
2014-Oct-28 15:33N 40°39' W 074°07'0 0.0
2014-Oct-28 14:33N 40°39' W 074°07'0 0.0
2014-Oct-28 13:33N 40°39' W 074°07'0 0.0
2014-Oct-28 12:33N 40°39' W 074°07'0 0.0
2014-Oct-28 11:33N 40°39' W 074°07'0 0.0
2014-Oct-28 10:33N 40°39' W 074°07'0 0.0
2014-Oct-28 09:33N 40°39' W 074°07'0 0.0
2014-Oct-28 08:33N 40°39' W 074°07'0 0.0
2014-Oct-28 07:33N 40°39' W 074°07'0 0.0
2014-Oct-28 06:33N 40°39' W 074°07'0 0.0
2014-Oct-28 05:33N 40°39' W 074°07'0 0.0
2014-Oct-28 04:33N 40°39' W 074°07'0 0.0
2014-Oct-28 03:33N 40°39' W 074°07'0 0.0
2014-Oct-28 02:33N 40°39' W 074°07'0 0.0
2014-Oct-28 01:33N 40°39' W 074°07'0 0.0
2014-Oct-28 00:33N 40°39' W 074°07'0 0.0
2014-Oct-27 23:33N 40°39' W 074°07'0 0.0
2014-Oct-27 22:33N 40°39' W 074°07'0 0.0
2014-Oct-27 21:33N 40°39' W 074°07'0 0.0
2014-Oct-27 20:33N 40°39' W 074°07'0 0.0
2014-Oct-27 19:33N 40°39' W 074°07'0 0.0
2014-Oct-27 18:33N 40°39' W 074°07'0 0.0
2014-Oct-27 17:33N 40°39' W 074°07'0 0.0
2014-Oct-27 16:33N 40°39' W 074°07'0 0.0
2014-Oct-27 15:33N 40°39' W 074°07'0 0.0
2014-Oct-27 14:34N 40°39' W 074°07'3 3.5
2014-Oct-27 13:34N 40°37' W 074°03'8 7.8
2014-Oct-27 12:34N 40°30' W 073°58'11 9.1
2014-Oct-27 11:21N 40°28' W 073°43'43 8.9
2014-Oct-27 06:32N 40°30' W 072°47'9 9.2
2014-Oct-27 05:34N 40°31' W 072°35'1211.7
2014-Oct-27 04:33N 40°31' W 072°20'1313.0
2014-Oct-27 03:34N 40°31' W 072°03'1312.8
2014-Oct-27 02:34N 40°32' W 071°46'1312.7
2014-Oct-27 01:33N 40°32' W 071°29'1412.8
2014-Oct-27 00:26N 40°32' W 071°10'  
2014-Oct-22 13:30N 46°37' W 071°59'1111.7
2014-Oct-22 12:33N 46°31' W 072°13'10 9.9
2014-Oct-22 11:33N 46°25' W 072°23'1010.1
2014-Oct-22 10:33N 46°18' W 072°34'10 9.5
2014-Oct-22 09:33N 46°14' W 072°47'2211.2
2014-Oct-22 07:33N 45°59' W 073°11'1212.1
2014-Oct-22 06:33N 45°48' W 073°19'1212.1
2014-Oct-22 05:33N 45°38' W 073°29'2 1.8
2014-Oct-22 04:31N 45°37' W 073°30'0 0.0
2014-Oct-22 03:31N 45°37' W 073°30'0 0.0
2014-Oct-22 02:28N 45°37' W 073°30'0 0.0
2014-Oct-22 01:31N 45°37' W 073°30'0 0.0
2014-Oct-22 00:31N 45°37' W 073°30'0 0.0
2014-Oct-21 23:25N 45°37' W 073°30'0 0.0
2014-Oct-21 22:31N 45°37' W 073°30'0 0.0
2014-Oct-21 21:31N 45°37' W 073°30'0 0.0
2014-Oct-21 20:28N 45°37' W 073°30'0 0.0
2014-Oct-21 19:28N 45°37' W 073°30'0 0.0
2014-Oct-21 18:31N 45°37' W 073°30'0 0.0
2014-Oct-21 17:28N 45°37' W 073°30'0 0.0
2014-Oct-21 16:31N 45°37' W 073°30'0 0.0
2014-Oct-21 15:31N 45°37' W 073°30'0 0.0
2014-Oct-21 14:31N 45°37' W 073°30'0 0.0
2014-Oct-21 13:28N 45°37' W 073°30'0 0.0
2014-Oct-21 12:31N 45°37' W 073°30'0 0.0
2014-Oct-21 11:31N 45°37' W 073°30'0 0.0
2014-Oct-21 10:31N 45°37' W 073°30'0 0.0
2014-Oct-21 09:31N 45°37' W 073°30'0 0.0
2014-Oct-21 08:31N 45°37' W 073°30'0 0.0
2014-Oct-21 07:31N 45°37' W 073°30'0 0.0
2014-Oct-21 06:28N 45°37' W 073°30'0 0.0
2014-Oct-21 05:31N 45°37' W 073°30'0 0.0
2014-Oct-21 04:28N 45°37' W 073°30'0 0.0
2014-Oct-21 03:28N 45°37' W 073°30'0 0.0
2014-Oct-21 02:31N 45°37' W 073°30'0 0.0
2014-Oct-21 01:28N 45°37' W 073°30'0 0.0
2014-Oct-21 00:31N 45°37' W 073°30'0 0.0
2014-Oct-20 16:28N 45°37' W 073°30'0 0.0
2014-Oct-20 15:31N 45°37' W 073°30'0 0.0
2014-Oct-20 14:31N 45°37' W 073°30'0 0.1
2014-Oct-20 13:33N 45°37' W 073°30'2 1.7
2014-Oct-20 12:33N 45°38' W 073°29'0 0.0
2014-Oct-20 11:33N 45°38' W 073°29'0 0.0
2014-Oct-20 10:30N 45°38' W 073°29'  

Dump ship's entire track history